Time;durP1;ratioP1;P1;durP2;ratioP2;P2;SDS_P1;SDS_P2;PMS_P1;PMS_P2;Temp;Humidity;BMP_temperature;BMP_pressure;BME280_temperature;BME280_humidity;BME280_pressure;Samples;Min_cycle;Max_cycle;Signal;HPM_P1;HPM_P2
2022/03/27 00:02:22;;;;;;;22.25;15.18;;;12.60;62.10;;;;;;5065444;28;20452;-92
2022/03/27 00:04:48;;;;;;;26.00;16.03;;;12.60;62.10;;;;;;5059677;28;20173;-91
2022/03/27 00:07:14;;;;;;;23.55;15.35;;;12.50;62.20;;;;;;5059526;28;20228;-90
2022/03/27 00:09:40;;;;;;;25.95;15.10;;;12.50;62.30;;;;;;5061838;28;20173;-91
2022/03/27 00:12:06;;;;;;;25.47;16.03;;;12.50;62.30;;;;;;5077519;28;20595;-92
2022/03/27 00:14:31;;;;;;;26.30;15.30;;;12.50;62.30;;;;;;5059438;28;20169;-90
2022/03/27 00:16:57;;;;;;;30.90;15.77;;;12.50;62.30;;;;;;5043815;28;20462;-90
2022/03/27 00:19:24;;;;;;;29.33;16.50;;;12.40;62.30;;;;;;5039424;28;20177;-91
2022/03/27 00:21:50;;;;;;;30.05;16.08;;;12.40;62.40;;;;;;5039395;28;20213;-92
2022/03/27 00:24:16;;;;;;;24.10;15.30;;;12.40;62.50;;;;;;5041006;28;20169;-91
2022/03/27 00:26:43;;;;;;;27.00;16.13;;;12.40;63.30;;;;;;5057537;28;20470;-92
2022/03/27 00:29:09;;;;;;;30.35;16.52;;;12.30;62.60;;;;;;5057133;28;20185;-93
2022/03/27 00:31:38;;;;;;;22.77;15.80;;;12.30;62.70;;;;;;5039497;28;20300;-92
2022/03/27 00:34:05;;;;;;;27.85;16.42;;;12.30;62.70;;;;;;5039080;28;20176;-92
2022/03/27 00:36:31;;;;;;;22.92;15.05;;;12.30;62.80;;;;;;5039830;28;20273;-91
2022/03/27 00:38:57;;;;;;;26.88;16.33;;;12.20;62.80;;;;;;5041002;28;20185;-91
2022/03/27 00:41:24;;;;;;;25.73;15.27;;;12.20;63.00;;;;;;5057824;28;20182;-92
2022/03/27 00:43:50;;;;;;;28.70;14.98;;;12.20;63.00;;;;;;5040079;28;20206;-92
2022/03/27 00:46:16;;;;;;;26.27;16.30;;;12.20;63.10;;;;;;5058450;28;20243;-91
2022/03/27 00:48:42;;;;;;;29.48;17.33;;;12.10;63.20;;;;;;5039769;28;20667;-92
2022/03/27 00:51:08;;;;;;;26.87;15.30;;;12.10;63.30;;;;;;5058923;28;20177;-91
2022/03/27 00:53:34;;;;;;;27.67;15.67;;;12.00;63.30;;;;;;5041988;28;20436;-92
2022/03/27 00:56:00;;;;;;;26.90;15.40;;;12.00;63.50;;;;;;5058047;28;20178;-91
2022/03/27 00:58:25;;;;;;;27.20;16.60;;;12.00;63.60;;;;;;5057585;28;20510;-92
2022/03/27 01:01:09;;;;;;;27.10;14.80;;;11.90;63.60;;;;;;5040405;28;20290;-92
2022/03/27 01:03:36;;;;;;;23.38;15.55;;;11.90;63.70;;;;;;5045493;28;20237;-93
2022/03/27 01:06:02;;;;;;;33.58;16.63;;;11.90;63.80;;;;;;5042695;28;20242;-92
2022/03/27 01:11:20;;;;;;;23.88;15.00;;;11.70;64.00;;;;;;5056783;28;20193;-92
2022/03/27 01:13:49;;;;;;;24.95;14.35;;;11.70;64.20;;;;;;5038330;28;20233;-92
2022/03/27 01:16:42;;;;;;;32.25;16.38;;;11.60;64.20;;;;;;5064839;28;20225;-91
2022/03/27 01:19:13;;;;;;;21.70;13.98;;;11.60;64.50;;;;;;5069523;28;20189;-92
2022/03/27 01:21:42;;;;;;;22.98;14.80;;;11.50;64.50;;;;;;5058229;28;20181;-92
2022/03/27 01:24:09;;;;;;;27.63;14.50;;;11.50;64.60;;;;;;5062418;28;20173;-92
2022/03/27 01:26:35;;;;;;;26.90;15.70;;;11.50;64.60;;;;;;5058262;28;20248;-91
2022/03/27 01:29:01;;;;;;;23.88;17.10;;;11.50;64.70;;;;;;5058207;28;20577;-91
2022/03/27 01:31:27;;;;;;;25.10;16.40;;;11.40;64.80;;;;;;5058887;28;20181;-92
2022/03/27 01:33:53;;;;;;;27.60;15.77;;;11.40;64.90;;;;;;5058185;28;20743;-90
2022/03/27 01:36:34;;;;;;;25.43;14.97;;;11.40;65.00;;;;;;5058102;28;20185;-91
2022/03/27 01:39:10;;;;;;;25.98;15.43;;;11.40;65.20;;;;;;5060412;28;20507;-93
2022/03/27 01:41:38;;;;;;;25.08;14.63;;;11.30;65.20;;;;;;5076988;28;20207;-92
2022/03/27 01:44:09;;;;;;;26.77;15.60;;;11.30;65.40;;;;;;5060396;28;20188;-91
2022/03/27 01:46:37;;;;;;;26.48;15.98;;;11.30;65.50;;;;;;5076383;28;20212;-92
2022/03/27 01:49:05;;;;;;;28.20;14.98;;;11.30;65.60;;;;;;5059115;28;20177;-91
2022/03/27 01:51:32;;;;;;;28.27;17.65;;;11.30;65.50;;;;;;5060065;28;20203;-90
2022/03/27 01:53:58;;;;;;;30.08;15.50;;;11.30;65.60;;;;;;5060080;28;20200;-91
2022/03/27 01:56:24;;;;;;;31.10;17.15;;;11.30;65.70;;;;;;5071064;28;20181;-90
2022/03/27 01:58:50;;;;;;;35.50;18.58;;;11.30;65.80;;;;;;5075204;28;20189;-92
2022/03/27 02:01:16;;;;;;;25.17;15.75;;;11.20;65.80;;;;;;5057732;28;20187;-91
2022/03/27 02:03:43;;;;;;;31.50;18.23;;;11.20;65.80;;;;;;5057481;28;20232;-91
2022/03/27 02:06:08;;;;;;;24.45;15.10;;;11.20;66.00;;;;;;5057992;28;20221;-91
2022/03/27 02:08:35;;;;;;;24.50;16.03;;;11.20;66.10;;;;;;5057771;28;20614;-92
2022/03/27 02:11:01;;;;;;;27.38;16.17;;;11.10;66.30;;;;;;5058943;28;20188;-92
2022/03/27 02:13:28;;;;;;;26.55;15.60;;;11.10;66.40;;;;;;5057843;28;20229;-91
2022/03/27 02:15:57;;;;;;;29.70;17.08;;;11.10;66.60;;;;;;5051263;28;20200;-90
2022/03/27 02:18:27;;;;;;;27.95;16.10;;;11.00;66.70;;;;;;5055539;28;20214;-90
2022/03/27 02:20:54;;;;;;;28.75;16.20;;;11.00;66.90;;;;;;5037280;28;20189;-90
2022/03/27 02:23:21;;;;;;;25.73;15.60;;;11.00;67.00;;;;;;5054944;28;20659;-90
2022/03/27 02:25:47;;;;;;;33.13;16.73;;;11.00;67.20;;;;;;5059663;28;20213;-90
2022/03/27 02:28:13;;;;;;;26.00;15.70;;;11.00;67.30;;;;;;5038448;28;20549;-91
2022/03/27 02:30:39;;;;;;;36.03;16.37;;;10.90;67.40;;;;;;5038200;28;20433;-90
2022/03/27 02:33:04;;;;;;;24.97;15.60;;;10.90;67.50;;;;;;5038300;28;20236;-91
2022/03/27 02:35:31;;;;;;;27.03;14.30;;;10.90;67.60;;;;;;5055845;28;20200;-90
2022/03/27 02:37:57;;;;;;;28.23;16.35;;;10.90;67.80;;;;;;5055503;28;20245;-91
2022/03/27 02:40:22;;;;;;;30.67;15.70;;;10.80;67.80;;;;;;5038048;28;20201;-89
2022/03/27 02:42:48;;;;;;;25.70;15.37;;;10.80;67.90;;;;;;5040728;28;20208;-90
2022/03/27 02:45:14;;;;;;;24.83;15.37;;;10.80;68.00;;;;;;5056125;28;20170;-89
2022/03/27 02:47:40;;;;;;;25.77;15.47;;;10.80;68.10;;;;;;5043382;28;20197;-91
2022/03/27 02:50:06;;;;;;;27.20;15.97;;;10.80;68.20;;;;;;5069430;28;20445;-90
2022/03/27 02:52:33;;;;;;;26.27;16.10;;;10.80;68.30;;;;;;5040808;28;20202;-90
2022/03/27 02:54:59;;;;;;;25.95;16.10;;;10.70;68.40;;;;;;5040878;28;20550;-90
2022/03/27 02:57:25;;;;;;;38.33;16.02;;;10.70;68.50;;;;;;5060715;28;20197;-90
2022/03/27 02:59:52;;;;;;;24.50;15.25;;;10.70;68.60;;;;;;5058747;28;20197;-90
2022/03/27 03:02:19;;;;;;;27.30;15.48;;;10.70;68.70;;;;;;5041384;28;20690;-91
2022/03/27 03:04:44;;;;;;;24.60;15.20;;;10.70;68.80;;;;;;5041192;28;20260;-90
2022/03/27 03:07:10;;;;;;;25.00;14.80;;;10.70;68.90;;;;;;5041012;28;20243;-91
2022/03/27 03:09:36;;;;;;;30.50;17.00;;;10.60;69.00;;;;;;5041569;28;20229;-89
2022/03/27 03:12:02;;;;;;;30.23;16.65;;;10.60;69.20;;;;;;5045524;28;20442;-90
2022/03/27 03:14:28;;;;;;;28.60;15.07;;;10.60;69.40;;;;;;5041467;28;20185;-90
2022/03/27 03:16:55;;;;;;;31.93;17.70;;;10.50;69.40;;;;;;5072682;28;20468;-89
2022/03/27 03:19:21;;;;;;;28.65;17.35;;;10.50;69.50;;;;;;5060700;28;20788;-91
2022/03/27 03:21:46;;;;;;;31.40;16.80;;;10.50;69.70;;;;;;5061256;28;20268;-91
2022/03/27 03:24:12;;;;;;;32.50;15.73;;;10.50;69.80;;;;;;5060566;28;20177;-89
2022/03/27 03:26:38;;;;;;;26.20;15.60;;;10.40;70.00;;;;;;5060281;28;20217;-91
2022/03/27 03:29:04;;;;;;;25.53;16.07;;;10.40;70.10;;;;;;5081106;28;20180;-89
2022/03/27 03:31:29;;;;;;;31.13;16.63;;;10.40;70.30;;;;;;5060926;28;20242;-92
2022/03/27 03:33:55;;;;;;;25.17;16.57;;;10.40;70.40;;;;;;5060954;28;20313;-91
2022/03/27 03:36:22;;;;;;;26.00;16.13;;;10.40;70.60;;;;;;5078318;28;20174;-90
2022/03/27 03:38:48;;;;;;;28.58;16.63;;;10.40;70.60;;;;;;5060065;28;20434;-92
2022/03/27 03:41:13;;;;;;;26.60;14.33;;;10.40;70.80;;;;;;5063035;28;20229;-91
2022/03/27 03:43:39;;;;;;;25.80;15.20;;;10.40;70.90;;;;;;5061442;28;20220;-91
2022/03/27 03:46:05;;;;;;;27.53;15.87;;;10.40;70.90;;;;;;5060407;28;20274;-90
2022/03/27 03:48:32;;;;;;;34.97;17.55;;;10.40;70.90;;;;;;5061687;28;20205;-91
2022/03/27 03:50:58;;;;;;;23.42;15.02;;;10.40;71.20;;;;;;5080303;28;20200;-91
2022/03/27 03:53:24;;;;;;;27.00;15.10;;;10.50;71.40;;;;;;5061413;28;20193;-91
2022/03/27 03:55:50;;;;;;;31.75;16.90;;;10.50;71.40;;;;;;5063795;28;20850;-90
2022/03/27 03:58:16;;;;;;;27.50;15.50;;;10.50;71.30;;;;;;5063020;28;20205;-91
2022/03/27 04:00:42;;;;;;;32.83;16.00;;;10.50;71.30;;;;;;5061081;28;20434;-91
2022/03/27 04:03:09;;;;;;;26.35;16.00;;;10.50;71.30;;;;;;5069007;28;20208;-91
2022/03/27 04:05:35;;;;;;;26.02;15.63;;;10.50;71.30;;;;;;5060259;28;20258;-90
2022/03/27 04:08:02;;;;;;;29.23;16.63;;;10.50;71.40;;;;;;5077046;28;20278;-91
2022/03/27 04:10:28;;;;;;;25.40;15.52;;;10.50;71.40;;;;;;5079872;28;20260;-91
2022/03/27 04:12:54;;;;;;;30.13;17.00;;;10.50;71.30;;;;;;5059451;28;20247;-91
2022/03/27 04:15:20;;;;;;;32.78;18.27;;;10.50;71.40;;;;;;5057835;28;20276;-92
2022/03/27 04:17:47;;;;;;;29.83;17.30;;;10.50;71.40;;;;;;5039231;28;20311;-91
2022/03/27 04:20:13;;;;;;;25.60;15.20;;;10.50;71.40;;;;;;5039141;28;20273;-92
2022/03/27 04:22:42;;;;;;;27.48;16.25;;;10.50;71.40;;;;;;5040489;28;20220;-91
2022/03/27 04:25:09;;;;;;;27.92;15.65;;;10.40;71.50;;;;;;5039424;28;20170;-92
2022/03/27 04:27:35;;;;;;;29.67;15.85;;;10.40;71.70;;;;;;5056810;28;20202;-90
2022/03/27 04:30:09;;;;;;;27.10;16.13;;;10.30;71.90;;;;;;5039288;28;20265;-92
2022/03/27 04:32:37;;;;;;;31.23;14.68;;;10.30;72.10;;;;;;5057009;28;20209;-92
2022/03/27 04:35:04;;;;;;;25.73;16.05;;;10.30;72.50;;;;;;5038826;28;20190;-91
2022/03/27 04:37:29;;;;;;;31.40;17.00;;;10.20;72.90;;;;;;5056503;28;20206;-91
2022/03/27 04:40:02;;;;;;;41.80;23.20;;;10.20;73.10;;;;;;5057984;28;20650;-90
2022/03/27 04:42:29;;;;;;;36.35;21.08;;;10.20;73.40;;;;;;5039196;28;20205;-91
2022/03/27 04:44:55;;;;;;;39.13;24.70;;;10.10;73.60;;;;;;5038783;28;20181;-90
2022/03/27 04:47:21;;;;;;;39.70;21.60;;;10.10;73.90;;;;;;5039491;28;20224;-91
2022/03/27 04:49:47;;;;;;;34.38;19.02;;;10.10;74.30;;;;;;5038896;28;20462;-91
2022/03/27 04:52:12;;;;;;;32.77;15.90;;;10.10;74.50;;;;;;5042069;28;20206;-90
2022/03/27 04:54:39;;;;;;;23.97;14.77;;;10.10;74.80;;;;;;5057056;28;20170;-91
2022/03/27 04:57:05;;;;;;;24.65;15.25;;;10.00;75.00;;;;;;5056551;28;20456;-92
2022/03/27 04:59:32;;;;;;;22.23;14.20;;;10.10;75.40;;;;;;5038764;28;20186;-91
2022/03/27 05:01:58;;;;;;;25.95;14.55;;;10.10;75.60;;;;;;5057378;28;20221;-92
2022/03/27 05:04:24;;;;;;;22.35;13.73;;;10.10;75.70;;;;;;5038717;28;20229;-90
2022/03/27 05:06:50;;;;;;;32.67;16.20;;;10.10;75.80;;;;;;5040828;28;20217;-91
2022/03/27 05:09:18;;;;;;;24.43;14.80;;;10.10;76.00;;;;;;5043215;28;20418;-89
2022/03/27 05:11:43;;;;;;;20.50;13.43;;;10.10;76.30;;;;;;5068813;28;20170;-91
2022/03/27 05:14:09;;;;;;;24.10;13.30;;;10.20;76.80;;;;;;5050427;28;20550;-90
2022/03/27 05:16:35;;;;;;;22.10;13.00;;;10.20;77.20;;;;;;5054226;28;20271;-92
2022/03/27 05:19:00;;;;;;;25.23;13.70;;;10.20;77.50;;;;;;5058209;28;20177;-91
2022/03/27 05:21:27;;;;;;;23.67;13.10;;;10.20;77.90;;;;;;5060767;28;20251;-92
2022/03/27 05:23:53;;;;;;;17.50;12.00;;;10.20;78.20;;;;;;5076110;28;20193;-91
2022/03/27 05:26:19;;;;;;;16.73;11.30;;;10.30;78.60;;;;;;5058336;28;20217;-91
2022/03/27 05:28:44;;;;;;;19.67;11.60;;;10.30;79.00;;;;;;5076089;28;20284;-92
2022/03/27 05:31:10;;;;;;;20.93;11.23;;;10.30;79.50;;;;;;5076256;28;20185;-91
2022/03/27 05:33:37;;;;;;;17.77;11.50;;;10.40;79.80;;;;;;5076031;28;20280;-93
2022/03/27 05:36:04;;;;;;;23.23;12.40;;;10.40;80.00;;;;;;5060800;28;20189;-91
2022/03/27 05:38:30;;;;;;;16.85;10.63;;;10.50;80.20;;;;;;5076130;28;20255;-92
2022/03/27 05:40:55;;;;;;;20.83;11.60;;;10.60;80.40;;;;;;5058493;28;20647;-92
2022/03/27 05:43:21;;;;;;;16.27;9.87;;;10.60;80.50;;;;;;5058338;28;20207;-89
2022/03/27 05:45:47;;;;;;;16.83;10.83;;;10.70;80.80;;;;;;5058007;28;20213;-90
2022/03/27 05:48:14;;;;;;;15.63;10.73;;;10.80;80.80;;;;;;5058131;28;20479;-91
2022/03/27 05:50:40;;;;;;;15.80;10.40;;;10.90;80.80;;;;;;5077297;28;20256;-90
2022/03/27 05:53:05;;;;;;;13.30;9.33;;;11.00;80.90;;;;;;5065512;28;20700;-90
2022/03/27 05:55:31;;;;;;;13.30;10.00;;;11.10;80.80;;;;;;5058649;28;20907;-90
2022/03/27 05:57:57;;;;;;;15.07;8.30;;;11.20;80.60;;;;;;5058220;28;20452;-91
2022/03/27 06:00:24;;;;;;;13.43;8.53;;;11.30;80.40;;;;;;5058183;28;20510;-90
2022/03/27 06:02:50;;;;;;;15.25;8.93;;;11.40;80.00;;;;;;5058752;28;20683;-92
2022/03/27 06:05:18;;;;;;;12.10;9.15;;;11.40;79.60;;;;;;5078946;28;20169;-91
2022/03/27 06:07:55;;;;;;;12.32;8.48;;;11.50;80.00;;;;;;5062983;28;20227;-92
2022/03/27 06:10:23;;;;;;;12.93;8.63;;;11.60;80.10;;;;;;5086600;28;20173;-91
2022/03/27 06:12:50;;;;;;;11.38;8.18;;;11.70;80.00;;;;;;5057650;28;20225;-91
2022/03/27 06:15:16;;;;;;;19.02;9.73;;;11.70;79.40;;;;;;5056340;28;20184;-92
2022/03/27 06:17:44;;;;;;;12.60;8.73;;;11.80;79.50;;;;;;5037618;28;20601;-92
2022/03/27 06:20:12;;;;;;;15.98;9.73;;;11.80;79.60;;;;;;5037542;28;20197;-90
2022/03/27 06:22:39;;;;;;;11.18;7.95;;;11.90;79.70;;;;;;5055325;28;20225;-91
2022/03/27 06:25:07;;;;;;;9.52;7.65;;;12.00;79.20;;;;;;5037310;28;20174;-91
2022/03/27 06:27:32;;;;;;;11.43;7.90;;;12.00;79.20;;;;;;5059171;28;20194;-90
2022/03/27 06:29:58;;;;;;;12.20;9.17;;;12.00;79.00;;;;;;5056889;28;20657;-91
2022/03/27 06:32:27;;;;;;;11.13;7.57;;;12.00;78.80;;;;;;5058623;28;20206;-91
2022/03/27 06:34:57;;;;;;;12.45;7.40;;;12.10;78.90;;;;;;5058934;28;20201;-93
2022/03/27 06:37:24;;;;;;;9.68;7.40;;;12.10;78.80;;;;;;5037278;28;20205;-92
2022/03/27 06:39:49;;;;;;;10.32;7.10;;;12.10;78.60;;;;;;5039890;28;20220;-91
2022/03/27 06:42:15;;;;;;;12.67;7.83;;;12.20;78.40;;;;;;5057224;28;20198;-90
2022/03/27 06:44:41;;;;;;;12.37;6.47;;;12.20;78.30;;;;;;5037113;28;20657;-90
2022/03/27 06:47:07;;;;;;;14.47;8.80;;;12.30;78.20;;;;;;5055228;28;20217;-92
2022/03/27 06:49:33;;;;;;;11.57;6.60;;;12.30;78.00;;;;;;5037214;28;20264;-90
2022/03/27 06:51:59;;;;;;;10.40;5.90;;;12.30;78.00;;;;;;5055305;28;20224;-92
2022/03/27 06:54:25;;;;;;;13.82;7.82;;;12.40;77.80;;;;;;5038280;28;20203;-92
2022/03/27 06:56:51;;;;;;;13.30;7.80;;;12.40;77.60;;;;;;5056654;28;20182;-91
2022/03/27 06:59:17;;;;;;;8.80;7.90;;;12.50;77.70;;;;;;5037842;28;20182;-90
2022/03/27 07:04:26;;;;;;;9.82;7.22;;;12.60;77.50;;;;;;5056401;28;20185;-92
2022/03/27 07:06:52;;;;;;;14.83;5.60;;;12.70;77.30;;;;;;5056095;28;20222;-91
2022/03/27 07:09:18;;;;;;;10.57;6.07;;;12.70;77.50;;;;;;5037867;28;20178;-91
2022/03/27 07:11:46;;;;;;;14.98;9.18;;;12.80;77.00;;;;;;5039493;28;20249;-91
2022/03/27 07:14:12;;;;;;;8.70;7.57;;;12.80;76.80;;;;;;5038648;28;20182;-91
2022/03/27 07:16:39;;;;;;;8.93;7.53;;;12.80;76.80;;;;;;5050680;28;20263;-92
2022/03/27 07:19:05;;;;;;;10.02;7.68;;;12.80;77.00;;;;;;5058421;28;20414;-92
2022/03/27 07:21:30;;;;;;;9.10;7.07;;;12.90;77.30;;;;;;5083687;28;20507;-91
2022/03/27 07:23:58;;;;;;;12.07;8.47;;;12.90;77.20;;;;;;5060876;28;20456;-91
2022/03/27 07:26:24;;;;;;;13.40;7.90;;;12.90;77.20;;;;;;5057022;28;20346;-92
2022/03/27 07:28:50;;;;;;;17.33;8.23;;;13.00;77.00;;;;;;5077784;28;20212;-92
2022/03/27 07:31:15;;;;;;;12.27;8.00;;;13.00;77.20;;;;;;5074136;28;20544;-92
2022/03/27 07:33:42;;;;;;;10.97;7.03;;;13.00;77.10;;;;;;5074194;28;20432;-92
2022/03/27 07:36:08;;;;;;;10.98;7.72;;;13.10;77.10;;;;;;5074627;28;20589;-91
2022/03/27 07:38:34;;;;;;;11.73;7.13;;;13.10;76.70;;;;;;5078295;28;20193;-91
2022/03/27 07:41:01;;;;;;;16.77;7.93;;;13.20;76.50;;;;;;5060383;28;20189;-93
2022/03/27 07:43:27;;;;;;;7.82;6.63;;;13.20;76.20;;;;;;5063765;28;20629;-93
2022/03/27 07:45:53;;;;;;;10.98;7.63;;;13.30;76.10;;;;;;5060519;28;20216;-90
2022/03/27 07:48:18;;;;;;;14.47;8.37;;;13.30;75.90;;;;;;5078483;28;20189;-91
2022/03/27 07:50:46;;;;;;;10.30;7.10;;;13.30;75.80;;;;;;5060644;28;20627;-91
2022/03/27 07:53:12;;;;;;;10.47;6.70;;;13.40;75.90;;;;;;5060077;28;20430;-90
2022/03/27 07:55:38;;;;;;;11.60;7.53;;;13.40;75.60;;;;;;5060012;28;20919;-91
2022/03/27 07:58:04;;;;;;;13.45;7.20;;;13.40;75.70;;;;;;5059963;28;20193;-91
2022/03/27 08:00:30;;;;;;;10.32;7.38;;;13.50;75.50;;;;;;5063569;28;20177;-92
2022/03/27 08:02:57;;;;;;;7.73;6.23;;;13.50;75.40;;;;;;5077512;28;20219;-91
2022/03/27 08:05:23;;;;;;;9.60;7.77;;;13.50;75.30;;;;;;5077729;28;20422;-90
2022/03/27 08:07:49;;;;;;;14.70;8.20;;;13.60;75.30;;;;;;5077471;28;20798;-90
2022/03/27 08:10:15;;;;;;;11.80;8.53;;;13.60;74.90;;;;;;5059690;28;20908;-91
2022/03/27 08:12:42;;;;;;;9.57;7.10;;;13.70;74.90;;;;;;5059599;28;20514;-91
2022/03/27 08:15:09;;;;;;;11.67;6.97;;;13.70;75.00;;;;;;5063709;28;20452;-90
2022/03/27 08:17:36;;;;;;;9.87;7.47;;;13.80;74.70;;;;;;5040041;28;20902;-90
2022/03/27 08:20:03;;;;;;;9.25;6.95;;;13.80;74.70;;;;;;5040099;28;20430;-90
2022/03/27 08:22:28;;;;;;;10.00;6.97;;;13.80;74.40;;;;;;5044950;28;20206;-90
2022/03/27 08:24:55;;;;;;;15.37;7.73;;;13.90;74.40;;;;;;5041884;28;20557;-90
2022/03/27 08:27:21;;;;;;;12.30;6.85;;;13.90;74.40;;;;;;5056657;28;20231;-90
2022/03/27 08:29:48;;;;;;;12.30;7.70;;;14.00;74.30;;;;;;5046822;28;20256;-91
2022/03/27 08:32:15;;;;;;;9.70;7.23;;;14.00;74.10;;;;;;5057474;28;20431;-91
2022/03/27 08:34:43;;;;;;;9.70;7.78;;;14.10;74.00;;;;;;5057015;28;20973;-91
2022/03/27 08:37:10;;;;;;;11.93;6.25;;;14.10;73.70;;;;;;5057141;28;20237;-91
2022/03/27 08:39:38;;;;;;;7.53;6.70;;;14.20;73.80;;;;;;5057108;28;20178;-90
2022/03/27 08:42:04;;;;;;;12.33;8.40;;;14.30;73.50;;;;;;5039293;28;20458;-92
2022/03/27 08:44:30;;;;;;;11.03;6.97;;;14.30;73.50;;;;;;5056663;28;20411;-90
2022/03/27 08:46:58;;;;;;;10.67;7.33;;;14.30;73.50;;;;;;5037963;28;20540;-90
2022/03/27 08:49:29;;;;;;;10.30;7.30;;;14.40;73.40;;;;;;5057215;28;20417;-91
2022/03/27 08:52:17;;;;;;;9.27;7.50;;;14.40;73.40;;;;;;5038228;28;20450;-91
2022/03/27 08:55:01;;;;;;;10.73;7.77;;;14.60;73.50;;;;;;5037369;28;20449;-90
2022/03/27 08:57:43;;;;;;;8.10;6.70;;;14.70;72.90;;;;;;5038428;28;20470;-91
2022/03/27 09:00:10;;;;;;;10.07;7.43;;;14.70;72.60;;;;;;5055928;28;20399;-90
2022/03/27 09:02:36;;;;;;;9.87;6.93;;;14.80;72.60;;;;;;5039818;28;20454;-91
2022/03/27 09:05:04;;;;;;;9.10;6.90;;;14.90;72.60;;;;;;5057199;28;20414;-92
2022/03/27 09:07:31;;;;;;;10.10;7.30;;;14.90;72.80;;;;;;5054993;28;20266;-90
2022/03/27 09:10:00;;;;;;;9.97;7.70;;;15.00;72.60;;;;;;5036958;28;20403;-90
2022/03/27 09:12:26;;;;;;;10.97;7.60;;;15.20;72.60;;;;;;5037902;28;21034;-92
2022/03/27 09:14:52;;;;;;;13.73;7.17;;;15.30;72.00;;;;;;5056962;28;20423;-91
2022/03/27 09:17:18;;;;;;;8.40;6.87;;;15.40;72.10;;;;;;5055519;28;20572;-91
2022/03/27 09:19:50;;;;;;;11.70;8.03;;;15.50;71.60;;;;;;5060306;28;20802;-90
2022/03/27 09:22:18;;;;;;;7.60;6.60;;;15.70;71.30;;;;;;5058596;28;20442;-90
2022/03/27 09:24:47;;;;;;;9.33;7.40;;;15.90;71.40;;;;;;5077692;28;20762;-90
2022/03/27 09:27:20;;;;;;;8.80;6.70;;;16.10;71.10;;;;;;5059464;28;20481;-90
2022/03/27 09:30:06;;;;;;;7.47;6.67;;;16.40;70.80;;;;;;5060126;28;20437;-92
2022/03/27 09:32:35;;;;;;;9.60;7.67;;;16.70;70.00;;;;;;5060149;28;20442;-90
2022/03/27 09:35:01;;;;;;;9.30;7.07;;;17.10;69.50;;;;;;5078830;28;20402;-89
2022/03/27 09:37:32;;;;;;;11.73;7.40;;;17.40;68.80;;;;;;5060036;28;20967;-90
2022/03/27 09:39:58;;;;;;;8.30;6.77;;;17.80;67.90;;;;;;5059019;28;20426;-91
2022/03/27 09:42:24;;;;;;;8.20;6.60;;;18.10;67.80;;;;;;5060146;28;20480;-91
2022/03/27 09:45:28;;;;;;;7.93;7.13;;;18.50;66.80;;;;;;5087759;28;20980;-90
2022/03/27 09:48:08;;;;;;;7.07;6.37;;;19.00;66.00;;;;;;5057013;28;20454;-90
2022/03/27 09:50:41;;;;;;;7.00;6.30;;;19.40;65.20;;;;;;5078432;28;20430;-90
2022/03/27 09:53:22;;;;;;;8.67;6.70;;;19.70;64.70;;;;;;5057769;28;20446;-90
2022/03/27 09:56:15;;;;;;;8.00;6.93;;;19.90;64.00;;;;;;5056667;28;20501;-90
2022/03/27 09:58:45;;;;;;;7.23;5.93;;;20.00;63.70;;;;;;5064921;28;20441;-91
2022/03/27 10:01:22;;;;;;;10.43;7.07;;;20.10;63.20;;;;;;5057574;28;20439;-91
2022/03/27 10:04:04;;;;;;;10.03;6.77;;;20.30;63.20;;;;;;5063273;28;20815;-91
2022/03/27 10:06:41;;;;;;;9.63;6.37;;;20.30;62.80;;;;;;5057722;28;20975;-92
2022/03/27 10:09:13;;;;;;;12.17;6.50;;;20.30;63.10;;;;;;5057228;28;20417;-92
2022/03/27 10:11:41;;;;;;;10.63;6.30;;;20.30;62.50;;;;;;5057776;28;20430;-90
2022/03/27 10:14:08;;;;;;;7.70;6.90;;;20.20;61.90;;;;;;5056155;28;20482;-92
2022/03/27 10:16:36;;;;;;;6.60;5.87;;;20.20;62.50;;;;;;5055693;28;20463;-92
2022/03/27 10:19:06;;;;;;;6.53;5.83;;;20.10;63.50;;;;;;5074458;28;20490;-91
2022/03/27 10:21:33;;;;;;;7.87;5.97;;;20.00;62.80;;;;;;5055851;28;20437;-91
2022/03/27 10:24:07;;;;;;;8.50;7.50;;;19.90;62.00;;;;;;5055580;28;20418;-91
2022/03/27 10:26:33;;;;;;;8.40;6.50;;;19.80;62.40;;;;;;5057581;28;20471;-92
2022/03/27 10:29:01;;;;;;;9.57;7.00;;;19.70;62.30;;;;;;5059775;28;20419;-90
2022/03/27 10:31:27;;;;;;;7.90;6.73;;;19.70;62.30;;;;;;5060041;28;20422;-91
2022/03/27 10:33:55;;;;;;;8.40;6.80;;;19.60;62.30;;;;;;5064402;28;20488;-90
2022/03/27 10:36:47;;;;;;;8.17;6.30;;;19.50;61.50;;;;;;5057435;28;20602;-90
2022/03/27 10:39:25;;;;;;;8.33;6.20;;;19.60;62.00;;;;;;5056631;28;20468;-92
2022/03/27 10:42:09;;;;;;;6.80;6.20;;;19.60;62.00;;;;;;5057186;28;20537;-92
2022/03/27 10:45:00;;;;;;;9.63;6.47;;;19.60;62.40;;;;;;5073619;28;20501;-92
2022/03/27 10:47:28;;;;;;;10.03;6.53;;;19.60;62.20;;;;;;5076338;28;20474;-91
2022/03/27 10:50:08;;;;;;;8.50;6.20;;;19.50;61.70;;;;;;5057295;28;20406;-91
2022/03/27 10:52:42;;;;;;;7.27;6.30;;;19.50;61.80;;;;;;5056877;28;20542;-90
2022/03/27 10:55:14;;;;;;;7.40;6.30;;;19.40;60.90;;;;;;5074501;28;20428;-92
2022/03/27 10:57:49;;;;;;;9.70;7.13;;;19.40;61.30;;;;;;5057026;28;20435;-92
2022/03/27 11:00:37;;;;;;;6.70;5.70;;;19.30;61.50;;;;;;5059836;28;20410;-92
2022/03/27 11:03:02;;;;;;;10.83;5.80;;;19.40;61.20;;;;;;5076121;28;20434;-90
2022/03/27 11:05:35;;;;;;;6.77;5.90;;;19.40;60.30;;;;;;5079952;28;20481;-92
2022/03/27 11:08:19;;;;;;;6.47;5.83;;;19.40;60.00;;;;;;5057662;28;20193;-91
2022/03/27 11:10:51;;;;;;;7.27;6.10;;;19.40;60.70;;;;;;5058978;28;21019;-92
2022/03/27 11:13:40;;;;;;;8.20;6.57;;;19.40;61.10;;;;;;5091491;28;20946;-91
2022/03/27 11:16:11;;;;;;;7.20;5.60;;;19.40;59.80;;;;;;5056352;28;20474;-92
2022/03/27 11:18:39;;;;;;;7.37;5.63;;;19.40;60.40;;;;;;5045534;28;20445;-92
2022/03/27 11:21:07;;;;;;;7.37;6.10;;;19.50;60.00;;;;;;5061801;28;20788;-91
2022/03/27 11:23:37;;;;;;;7.03;5.33;;;19.50;60.00;;;;;;5077930;28;20479;-90
2022/03/27 11:26:23;;;;;;;6.50;4.67;;;19.60;60.70;;;;;;5065762;28;20480;-92
2022/03/27 11:28:54;;;;;;;5.63;4.90;;;19.70;59.90;;;;;;5040138;28;20439;-90
2022/03/27 11:31:24;;;;;;;7.87;5.57;;;19.80;58.90;;;;;;5058487;28;20424;-91
2022/03/27 11:34:05;;;;;;;6.33;5.23;;;19.90;58.60;;;;;;5042568;28;20448;-91
2022/03/27 11:36:38;;;;;;;6.83;5.47;;;19.90;57.90;;;;;;5061145;28;20488;-92
2022/03/27 11:39:34;;;;;;;7.50;5.33;;;19.90;58.20;;;;;;5072625;28;20418;-92
2022/03/27 11:42:35;;;;;;;7.90;5.67;;;20.00;59.00;;;;;;5044392;28;20451;-92
2022/03/27 11:45:11;;;;;;;8.47;6.30;;;20.10;59.10;;;;;;5036568;28;20571;-92
2022/03/27 11:47:41;;;;;;;8.03;6.03;;;20.10;59.30;;;;;;5058930;28;20633;-92
2022/03/27 11:50:08;;;;;;;9.20;5.80;;;20.20;59.20;;;;;;5059889;28;20435;-90
2022/03/27 11:52:35;;;;;;;5.63;5.07;;;20.20;59.50;;;;;;5080654;28;20437;-92
2022/03/27 11:55:11;;;;;;;6.00;5.43;;;20.30;59.20;;;;;;5077566;28;20409;-90
2022/03/27 11:57:51;;;;;;;8.37;6.00;;;20.30;59.30;;;;;;5060376;28;20435;-93
2022/03/27 12:00:41;;;;;;;14.73;5.40;;;20.30;59.70;;;;;;5074684;28;20402;-92
2022/03/27 12:03:19;;;;;;;6.67;5.97;;;20.30;59.80;;;;;;5057956;28;20442;-91
2022/03/27 12:05:45;;;;;;;7.13;5.47;;;20.20;59.60;;;;;;5075475;28;20474;-90
2022/03/27 12:08:15;;;;;;;6.93;6.23;;;20.20;60.00;;;;;;5062496;28;20442;-92
2022/03/27 12:10:43;;;;;;;8.20;5.97;;;20.10;59.80;;;;;;5075081;28;20426;-92
2022/03/27 12:13:09;;;;;;;7.47;6.30;;;20.10;59.20;;;;;;5061764;28;20984;-93
2022/03/27 12:15:46;;;;;;;5.83;5.23;;;20.00;59.10;;;;;;5060365;28;20544;-91
2022/03/27 12:18:25;;;;;;;5.70;4.77;;;20.00;59.40;;;;;;5043215;28;20838;-91
2022/03/27 12:20:51;;;;;;;9.73;5.47;;;20.00;59.70;;;;;;5039949;28;20428;-91
2022/03/27 12:23:29;;;;;;;5.60;4.90;;;20.00;59.40;;;;;;5042483;28;20438;-92
2022/03/27 12:26:02;;;;;;;5.90;4.60;;;20.00;59.20;;;;;;5040070;28;20542;-91
2022/03/27 12:31:25;;;;;;;6.33;5.20;;;20.00;59.30;;;;;;5059341;28;20421;-91
2022/03/27 12:33:52;;;;;;;7.70;5.67;;;20.00;59.30;;;;;;5039964;28;20481;-92
2022/03/27 12:36:18;;;;;;;8.10;4.93;;;20.00;59.40;;;;;;5038346;28;20417;-92
2022/03/27 12:38:44;;;;;;;5.60;5.00;;;20.10;59.60;;;;;;5040488;28;20469;-90
2022/03/27 12:41:11;;;;;;;5.20;4.20;;;20.10;59.40;;;;;;5061389;28;20925;-91
2022/03/27 12:43:59;;;;;;;5.97;5.07;;;20.20;59.20;;;;;;5049157;28;20509;-90
2022/03/27 12:46:25;;;;;;;5.57;5.00;;;20.20;59.30;;;;;;5063778;28;20603;-92
2022/03/27 12:49:03;;;;;;;7.40;5.03;;;20.30;58.90;;;;;;5042797;28;20464;-90
2022/03/27 12:51:29;;;;;;;5.60;4.33;;;20.30;58.50;;;;;;5052466;28;20180;-91
2022/03/27 12:54:04;;;;;;;8.57;5.43;;;20.30;58.30;;;;;;5071977;28;20454;-89